sensor_id;sensor_type;location;lat;lon;timestamp;P1;durP1;ratioP1;P2;durP2;ratioP2
24223;SDS011;12359;49.716;9.212;2022-11-14T00:00:01;15.00;;;10.50;;
24223;SDS011;12359;49.716;9.212;2022-11-14T00:02:26;17.05;;;10.32;;
24223;SDS011;12359;49.716;9.212;2022-11-14T00:04:52;14.00;;;10.85;;
24223;SDS011;12359;49.716;9.212;2022-11-14T00:07:18;15.65;;;11.32;;
24223;SDS011;12359;49.716;9.212;2022-11-14T00:09:44;15.68;;;11.55;;
24223;SDS011;12359;49.716;9.212;2022-11-14T00:12:10;16.92;;;12.27;;
24223;SDS011;12359;49.716;9.212;2022-11-14T00:14:36;15.48;;;10.88;;
24223;SDS011;12359;49.716;9.212;2022-11-14T00:17:02;16.35;;;11.02;;
24223;SDS011;12359;49.716;9.212;2022-11-14T00:19:29;16.83;;;11.00;;
24223;SDS011;12359;49.716;9.212;2022-11-14T00:21:55;20.17;;;12.45;;
24223;SDS011;12359;49.716;9.212;2022-11-14T00:24:20;13.82;;;10.25;;
24223;SDS011;12359;49.716;9.212;2022-11-14T00:26:46;18.80;;;11.38;;
24223;SDS011;12359;49.716;9.212;2022-11-14T00:29:13;15.43;;;12.23;;
24223;SDS011;12359;49.716;9.212;2022-11-14T00:31:40;15.63;;;12.15;;
24223;SDS011;12359;49.716;9.212;2022-11-14T00:34:06;16.00;;;12.48;;
24223;SDS011;12359;49.716;9.212;2022-11-14T00:36:32;17.00;;;10.80;;
24223;SDS011;12359;49.716;9.212;2022-11-14T00:38:58;12.60;;;10.38;;
24223;SDS011;12359;49.716;9.212;2022-11-14T00:41:23;17.00;;;10.98;;
24223;SDS011;12359;49.716;9.212;2022-11-14T00:43:49;16.08;;;11.85;;
24223;SDS011;12359;49.716;9.212;2022-11-14T00:46:15;22.55;;;11.82;;
24223;SDS011;12359;49.716;9.212;2022-11-14T00:48:41;17.70;;;11.38;;
24223;SDS011;12359;49.716;9.212;2022-11-14T00:51:07;17.75;;;12.80;;
24223;SDS011;12359;49.716;9.212;2022-11-14T00:53:33;16.90;;;11.15;;
24223;SDS011;12359;49.716;9.212;2022-11-14T00:55:58;16.08;;;11.15;;
24223;SDS011;12359;49.716;9.212;2022-11-14T00:58:24;15.20;;;11.27;;
24223;SDS011;12359;49.716;9.212;2022-11-14T01:00:50;15.93;;;11.43;;
24223;SDS011;12359;49.716;9.212;2022-11-14T01:03:16;16.67;;;11.13;;
24223;SDS011;12359;49.716;9.212;2022-11-14T01:05:46;17.70;;;11.15;;
24223;SDS011;12359;49.716;9.212;2022-11-14T01:08:15;15.43;;;9.77;;
24223;SDS011;12359;49.716;9.212;2022-11-14T01:10:42;13.80;;;9.20;;
24223;SDS011;12359;49.716;9.212;2022-11-14T01:13:09;16.35;;;10.10;;
24223;SDS011;12359;49.716;9.212;2022-11-14T01:15:39;14.20;;;10.00;;
24223;SDS011;12359;49.716;9.212;2022-11-14T01:18:06;13.60;;;9.57;;
24223;SDS011;12359;49.716;9.212;2022-11-14T01:20:36;14.30;;;9.05;;
24223;SDS011;12359;49.716;9.212;2022-11-14T01:23:03;12.88;;;9.32;;
24223;SDS011;12359;49.716;9.212;2022-11-14T01:25:31;15.27;;;10.38;;
24223;SDS011;12359;49.716;9.212;2022-11-14T01:28:00;12.48;;;9.40;;
24223;SDS011;12359;49.716;9.212;2022-11-14T01:30:29;13.40;;;9.73;;
24223;SDS011;12359;49.716;9.212;2022-11-14T01:32:54;14.68;;;9.77;;
24223;SDS011;12359;49.716;9.212;2022-11-14T01:35:20;12.70;;;9.55;;
24223;SDS011;12359;49.716;9.212;2022-11-14T01:37:46;16.50;;;10.27;;
24223;SDS011;12359;49.716;9.212;2022-11-14T01:40:11;15.45;;;10.52;;
24223;SDS011;12359;49.716;9.212;2022-11-14T01:42:37;15.15;;;9.38;;
24223;SDS011;12359;49.716;9.212;2022-11-14T01:48:09;24.98;;;11.60;;
24223;SDS011;12359;49.716;9.212;2022-11-14T01:50:46;22.80;;;10.73;;
24223;SDS011;12359;49.716;9.212;2022-11-14T01:53:18;17.08;;;11.40;;
24223;SDS011;12359;49.716;9.212;2022-11-14T01:55:43;15.60;;;10.38;;
24223;SDS011;12359;49.716;9.212;2022-11-14T01:58:09;18.70;;;13.05;;
24223;SDS011;12359;49.716;9.212;2022-11-14T02:00:35;16.38;;;11.77;;
24223;SDS011;12359;49.716;9.212;2022-11-14T02:03:01;19.48;;;12.93;;
24223;SDS011;12359;49.716;9.212;2022-11-14T02:05:28;19.25;;;11.98;;
24223;SDS011;12359;49.716;9.212;2022-11-14T02:07:54;12.88;;;11.27;;
24223;SDS011;12359;49.716;9.212;2022-11-14T02:10:21;18.88;;;12.00;;
24223;SDS011;12359;49.716;9.212;2022-11-14T02:12:47;17.30;;;11.55;;
24223;SDS011;12359;49.716;9.212;2022-11-14T02:15:14;13.43;;;10.60;;
24223;SDS011;12359;49.716;9.212;2022-11-14T02:17:40;12.68;;;9.50;;
24223;SDS011;12359;49.716;9.212;2022-11-14T02:22:34;16.27;;;11.60;;
24223;SDS011;12359;49.716;9.212;2022-11-14T02:25:00;14.02;;;10.00;;
24223;SDS011;12359;49.716;9.212;2022-11-14T02:27:26;15.88;;;10.48;;
24223;SDS011;12359;49.716;9.212;2022-11-14T02:29:52;14.60;;;11.18;;
24223;SDS011;12359;49.716;9.212;2022-11-14T02:32:17;17.58;;;12.05;;
24223;SDS011;12359;49.716;9.212;2022-11-14T02:34:43;15.45;;;10.40;;
24223;SDS011;12359;49.716;9.212;2022-11-14T02:37:09;11.95;;;9.82;;
24223;SDS011;12359;49.716;9.212;2022-11-14T02:39:34;13.32;;;10.80;;
24223;SDS011;12359;49.716;9.212;2022-11-14T02:42:00;15.80;;;10.05;;
24223;SDS011;12359;49.716;9.212;2022-11-14T02:44:26;14.13;;;9.48;;
24223;SDS011;12359;49.716;9.212;2022-11-14T02:46:52;16.90;;;10.80;;
24223;SDS011;12359;49.716;9.212;2022-11-14T02:49:17;12.70;;;10.27;;
24223;SDS011;12359;49.716;9.212;2022-11-14T02:51:43;13.20;;;9.80;;
24223;SDS011;12359;49.716;9.212;2022-11-14T02:54:09;12.07;;;8.95;;
24223;SDS011;12359;49.716;9.212;2022-11-14T02:56:34;12.95;;;10.10;;
24223;SDS011;12359;49.716;9.212;2022-11-14T02:59:00;15.68;;;9.75;;
24223;SDS011;12359;49.716;9.212;2022-11-14T03:01:26;13.18;;;9.90;;
24223;SDS011;12359;49.716;9.212;2022-11-14T03:03:51;15.45;;;9.13;;
24223;SDS011;12359;49.716;9.212;2022-11-14T03:06:17;15.80;;;9.02;;
24223;SDS011;12359;49.716;9.212;2022-11-14T03:08:43;14.00;;;10.32;;
24223;SDS011;12359;49.716;9.212;2022-11-14T03:11:08;15.60;;;10.35;;
24223;SDS011;12359;49.716;9.212;2022-11-14T03:13:34;13.65;;;8.48;;
24223;SDS011;12359;49.716;9.212;2022-11-14T03:16:04;14.07;;;9.00;;
24223;SDS011;12359;49.716;9.212;2022-11-14T03:18:31;12.95;;;8.38;;
24223;SDS011;12359;49.716;9.212;2022-11-14T03:20:57;12.38;;;8.80;;
24223;SDS011;12359;49.716;9.212;2022-11-14T03:23:49;16.90;;;9.90;;
24223;SDS011;12359;49.716;9.212;2022-11-14T03:26:15;13.80;;;9.88;;
24223;SDS011;12359;49.716;9.212;2022-11-14T03:28:41;14.60;;;10.25;;
24223;SDS011;12359;49.716;9.212;2022-11-14T03:31:07;14.18;;;9.43;;
24223;SDS011;12359;49.716;9.212;2022-11-14T03:33:35;14.68;;;10.13;;
24223;SDS011;12359;49.716;9.212;2022-11-14T03:36:01;16.48;;;10.63;;
24223;SDS011;12359;49.716;9.212;2022-11-14T03:38:28;13.55;;;10.82;;
24223;SDS011;12359;49.716;9.212;2022-11-14T03:40:54;17.52;;;11.50;;
24223;SDS011;12359;49.716;9.212;2022-11-14T03:43:23;15.07;;;10.93;;
24223;SDS011;12359;49.716;9.212;2022-11-14T03:45:48;16.38;;;11.68;;
24223;SDS011;12359;49.716;9.212;2022-11-14T03:48:14;17.08;;;12.18;;
24223;SDS011;12359;49.716;9.212;2022-11-14T03:50:40;15.00;;;11.35;;
24223;SDS011;12359;49.716;9.212;2022-11-14T03:53:07;16.88;;;11.88;;
24223;SDS011;12359;49.716;9.212;2022-11-14T03:55:33;17.77;;;11.73;;
24223;SDS011;12359;49.716;9.212;2022-11-14T03:57:59;18.67;;;13.05;;
24223;SDS011;12359;49.716;9.212;2022-11-14T04:00:24;18.00;;;12.63;;
24223;SDS011;12359;49.716;9.212;2022-11-14T04:02:53;16.60;;;12.27;;
24223;SDS011;12359;49.716;9.212;2022-11-14T04:05:19;21.77;;;12.38;;
24223;SDS011;12359;49.716;9.212;2022-11-14T04:07:46;15.85;;;12.18;;
24223;SDS011;12359;49.716;9.212;2022-11-14T04:10:11;17.80;;;14.05;;
24223;SDS011;12359;49.716;9.212;2022-11-14T04:12:37;16.17;;;13.02;;
24223;SDS011;12359;49.716;9.212;2022-11-14T04:15:03;18.20;;;13.02;;
24223;SDS011;12359;49.716;9.212;2022-11-14T04:17:29;17.98;;;13.43;;
24223;SDS011;12359;49.716;9.212;2022-11-14T04:19:55;17.92;;;13.35;;
24223;SDS011;12359;49.716;9.212;2022-11-14T04:22:20;18.95;;;12.93;;
24223;SDS011;12359;49.716;9.212;2022-11-14T04:24:46;19.85;;;14.07;;
24223;SDS011;12359;49.716;9.212;2022-11-14T04:27:12;19.17;;;15.02;;
24223;SDS011;12359;49.716;9.212;2022-11-14T04:29:37;26.88;;;18.33;;
24223;SDS011;12359;49.716;9.212;2022-11-14T04:32:03;21.70;;;15.70;;
24223;SDS011;12359;49.716;9.212;2022-11-14T04:34:29;25.65;;;16.98;;
24223;SDS011;12359;49.716;9.212;2022-11-14T04:36:55;27.02;;;18.17;;
24223;SDS011;12359;49.716;9.212;2022-11-14T04:39:20;32.47;;;19.33;;
24223;SDS011;12359;49.716;9.212;2022-11-14T04:41:46;28.27;;;19.00;;
24223;SDS011;12359;49.716;9.212;2022-11-14T04:44:12;28.88;;;20.92;;
24223;SDS011;12359;49.716;9.212;2022-11-14T04:46:37;33.72;;;20.02;;
24223;SDS011;12359;49.716;9.212;2022-11-14T04:49:03;41.50;;;26.60;;
24223;SDS011;12359;49.716;9.212;2022-11-14T04:51:29;32.88;;;23.75;;
24223;SDS011;12359;49.716;9.212;2022-11-14T04:53:54;50.25;;;28.85;;
24223;SDS011;12359;49.716;9.212;2022-11-14T04:56:20;42.58;;;24.35;;
24223;SDS011;12359;49.716;9.212;2022-11-14T04:58:47;37.20;;;24.55;;
24223;SDS011;12359;49.716;9.212;2022-11-14T05:01:14;35.50;;;21.40;;
24223;SDS011;12359;49.716;9.212;2022-11-14T05:03:40;32.95;;;22.02;;
24223;SDS011;12359;49.716;9.212;2022-11-14T05:06:05;32.80;;;21.08;;
24223;SDS011;12359;49.716;9.212;2022-11-14T05:08:31;33.42;;;20.42;;
24223;SDS011;12359;49.716;9.212;2022-11-14T05:10:58;35.50;;;22.52;;
24223;SDS011;12359;49.716;9.212;2022-11-14T05:13:24;29.52;;;20.77;;
24223;SDS011;12359;49.716;9.212;2022-11-14T05:15:49;30.30;;;21.25;;
24223;SDS011;12359;49.716;9.212;2022-11-14T05:18:15;30.88;;;21.48;;
24223;SDS011;12359;49.716;9.212;2022-11-14T05:20:41;30.02;;;20.38;;
24223;SDS011;12359;49.716;9.212;2022-11-14T05:23:10;32.88;;;21.83;;
24223;SDS011;12359;49.716;9.212;2022-11-14T05:25:44;34.45;;;22.98;;
24223;SDS011;12359;49.716;9.212;2022-11-14T05:28:10;35.95;;;21.65;;
24223;SDS011;12359;49.716;9.212;2022-11-14T05:30:35;39.67;;;22.17;;
24223;SDS011;12359;49.716;9.212;2022-11-14T05:33:01;31.27;;;20.52;;
24223;SDS011;12359;49.716;9.212;2022-11-14T05:35:27;32.20;;;21.48;;
24223;SDS011;12359;49.716;9.212;2022-11-14T05:37:53;37.47;;;22.65;;
24223;SDS011;12359;49.716;9.212;2022-11-14T05:40:18;33.00;;;21.63;;
24223;SDS011;12359;49.716;9.212;2022-11-14T05:42:44;39.95;;;23.55;;
24223;SDS011;12359;49.716;9.212;2022-11-14T05:45:09;33.97;;;21.67;;
24223;SDS011;12359;49.716;9.212;2022-11-14T05:47:35;35.55;;;22.33;;
24223;SDS011;12359;49.716;9.212;2022-11-14T05:50:01;28.77;;;19.75;;
24223;SDS011;12359;49.716;9.212;2022-11-14T05:52:27;32.95;;;20.55;;
24223;SDS011;12359;49.716;9.212;2022-11-14T05:54:54;35.28;;;22.30;;
24223;SDS011;12359;49.716;9.212;2022-11-14T05:57:20;33.83;;;21.10;;
24223;SDS011;12359;49.716;9.212;2022-11-14T05:59:45;37.15;;;22.30;;
24223;SDS011;12359;49.716;9.212;2022-11-14T06:02:11;35.05;;;22.33;;
24223;SDS011;12359;49.716;9.212;2022-11-14T06:04:36;32.45;;;21.35;;
24223;SDS011;12359;49.716;9.212;2022-11-14T06:07:02;36.58;;;21.95;;
24223;SDS011;12359;49.716;9.212;2022-11-14T06:09:28;33.80;;;21.63;;
24223;SDS011;12359;49.716;9.212;2022-11-14T06:11:53;33.40;;;20.70;;
24223;SDS011;12359;49.716;9.212;2022-11-14T06:14:19;29.90;;;21.20;;
24223;SDS011;12359;49.716;9.212;2022-11-14T06:16:45;28.13;;;20.23;;
24223;SDS011;12359;49.716;9.212;2022-11-14T06:19:10;43.63;;;23.85;;
24223;SDS011;12359;49.716;9.212;2022-11-14T06:21:36;30.02;;;19.27;;
24223;SDS011;12359;49.716;9.212;2022-11-14T06:24:02;32.35;;;20.13;;
24223;SDS011;12359;49.716;9.212;2022-11-14T06:26:29;35.42;;;21.13;;
24223;SDS011;12359;49.716;9.212;2022-11-14T06:28:56;33.28;;;21.67;;
24223;SDS011;12359;49.716;9.212;2022-11-14T06:31:23;34.38;;;20.30;;
24223;SDS011;12359;49.716;9.212;2022-11-14T06:33:49;34.10;;;21.10;;
24223;SDS011;12359;49.716;9.212;2022-11-14T06:36:16;32.58;;;21.15;;
24223;SDS011;12359;49.716;9.212;2022-11-14T06:38:42;32.20;;;21.90;;
24223;SDS011;12359;49.716;9.212;2022-11-14T06:43:39;32.45;;;20.63;;
24223;SDS011;12359;49.716;9.212;2022-11-14T06:46:06;31.33;;;19.58;;
24223;SDS011;12359;49.716;9.212;2022-11-14T06:48:33;33.95;;;22.25;;
24223;SDS011;12359;49.716;9.212;2022-11-14T06:50:59;32.47;;;20.80;;
24223;SDS011;12359;49.716;9.212;2022-11-14T06:53:27;34.38;;;23.05;;
24223;SDS011;12359;49.716;9.212;2022-11-14T06:55:54;42.30;;;22.83;;
24223;SDS011;12359;49.716;9.212;2022-11-14T06:58:35;35.40;;;21.77;;
24223;SDS011;12359;49.716;9.212;2022-11-14T07:03:36;33.72;;;22.02;;
24223;SDS011;12359;49.716;9.212;2022-11-14T07:06:03;37.80;;;22.17;;
24223;SDS011;12359;49.716;9.212;2022-11-14T07:08:29;32.78;;;21.05;;
24223;SDS011;12359;49.716;9.212;2022-11-14T07:11:05;36.35;;;22.20;;
24223;SDS011;12359;49.716;9.212;2022-11-14T07:13:33;33.63;;;22.30;;
24223;SDS011;12359;49.716;9.212;2022-11-14T07:16:00;38.05;;;21.75;;
24223;SDS011;12359;49.716;9.212;2022-11-14T07:18:28;33.45;;;21.15;;
24223;SDS011;12359;49.716;9.212;2022-11-14T07:20:58;35.53;;;21.58;;
24223;SDS011;12359;49.716;9.212;2022-11-14T07:23:26;34.80;;;20.48;;
24223;SDS011;12359;49.716;9.212;2022-11-14T07:25:52;38.03;;;22.30;;
24223;SDS011;12359;49.716;9.212;2022-11-14T07:28:17;33.17;;;21.48;;
24223;SDS011;12359;49.716;9.212;2022-11-14T07:30:43;35.30;;;21.65;;
24223;SDS011;12359;49.716;9.212;2022-11-14T07:33:09;32.00;;;20.80;;
24223;SDS011;12359;49.716;9.212;2022-11-14T07:35:37;35.00;;;21.95;;
24223;SDS011;12359;49.716;9.212;2022-11-14T07:38:04;37.08;;;22.90;;
24223;SDS011;12359;49.716;9.212;2022-11-14T07:40:30;38.47;;;21.27;;
24223;SDS011;12359;49.716;9.212;2022-11-14T07:42:56;30.15;;;20.00;;
24223;SDS011;12359;49.716;9.212;2022-11-14T07:45:23;36.03;;;22.17;;
24223;SDS011;12359;49.716;9.212;2022-11-14T07:47:49;33.15;;;19.77;;
24223;SDS011;12359;49.716;9.212;2022-11-14T07:50:19;35.67;;;22.15;;
24223;SDS011;12359;49.716;9.212;2022-11-14T07:52:48;28.60;;;20.38;;
24223;SDS011;12359;49.716;9.212;2022-11-14T07:55:15;35.55;;;21.48;;
24223;SDS011;12359;49.716;9.212;2022-11-14T07:57:41;30.67;;;20.02;;
24223;SDS011;12359;49.716;9.212;2022-11-14T08:00:07;32.40;;;20.42;;
24223;SDS011;12359;49.716;9.212;2022-11-14T08:02:33;32.80;;;19.73;;
24223;SDS011;12359;49.716;9.212;2022-11-14T08:04:58;35.75;;;21.08;;
24223;SDS011;12359;49.716;9.212;2022-11-14T08:07:25;30.70;;;19.55;;
24223;SDS011;12359;49.716;9.212;2022-11-14T08:09:50;36.92;;;20.77;;
24223;SDS011;12359;49.716;9.212;2022-11-14T08:12:16;31.55;;;19.30;;
24223;SDS011;12359;49.716;9.212;2022-11-14T08:14:42;29.55;;;20.08;;
24223;SDS011;12359;49.716;9.212;2022-11-14T08:17:07;25.25;;;17.65;;
24223;SDS011;12359;49.716;9.212;2022-11-14T08:19:33;26.25;;;17.90;;
24223;SDS011;12359;49.716;9.212;2022-11-14T08:21:59;29.90;;;18.38;;
24223;SDS011;12359;49.716;9.212;2022-11-14T08:24:24;25.00;;;16.98;;
24223;SDS011;12359;49.716;9.212;2022-11-14T08:26:50;25.60;;;17.95;;
24223;SDS011;12359;49.716;9.212;2022-11-14T08:29:16;24.55;;;18.15;;
24223;SDS011;12359;49.716;9.212;2022-11-14T08:31:41;28.60;;;18.70;;
24223;SDS011;12359;49.716;9.212;2022-11-14T08:34:07;25.52;;;17.73;;
24223;SDS011;12359;49.716;9.212;2022-11-14T08:36:33;31.60;;;15.98;;
24223;SDS011;12359;49.716;9.212;2022-11-14T08:38:59;23.90;;;15.45;;
24223;SDS011;12359;49.716;9.212;2022-11-14T08:41:25;26.83;;;17.40;;
24223;SDS011;12359;49.716;9.212;2022-11-14T08:43:50;25.70;;;17.48;;
24223;SDS011;12359;49.716;9.212;2022-11-14T08:46:16;23.85;;;16.58;;
24223;SDS011;12359;49.716;9.212;2022-11-14T08:48:41;23.20;;;16.45;;
24223;SDS011;12359;49.716;9.212;2022-11-14T08:51:07;26.63;;;17.23;;
24223;SDS011;12359;49.716;9.212;2022-11-14T08:53:33;26.38;;;18.63;;
24223;SDS011;12359;49.716;9.212;2022-11-14T08:55:59;23.83;;;17.55;;
24223;SDS011;12359;49.716;9.212;2022-11-14T08:58:28;24.10;;;17.13;;
24223;SDS011;12359;49.716;9.212;2022-11-14T09:00:58;23.33;;;16.65;;
24223;SDS011;12359;49.716;9.212;2022-11-14T09:03:26;24.15;;;16.38;;
24223;SDS011;12359;49.716;9.212;2022-11-14T09:05:52;22.85;;;15.57;;
24223;SDS011;12359;49.716;9.212;2022-11-14T09:08:18;21.85;;;15.90;;
24223;SDS011;12359;49.716;9.212;2022-11-14T09:10:44;18.30;;;13.75;;
24223;SDS011;12359;49.716;9.212;2022-11-14T09:13:10;22.02;;;14.60;;
24223;SDS011;12359;49.716;9.212;2022-11-14T09:15:35;20.92;;;15.15;;
24223;SDS011;12359;49.716;9.212;2022-11-14T09:18:01;22.50;;;15.98;;
24223;SDS011;12359;49.716;9.212;2022-11-14T09:20:27;23.60;;;14.77;;
24223;SDS011;12359;49.716;9.212;2022-11-14T09:22:56;21.10;;;15.75;;
24223;SDS011;12359;49.716;9.212;2022-11-14T09:25:23;21.02;;;15.07;;
24223;SDS011;12359;49.716;9.212;2022-11-14T09:27:50;22.27;;;14.48;;
24223;SDS011;12359;49.716;9.212;2022-11-14T09:30:16;18.27;;;13.43;;
24223;SDS011;12359;49.716;9.212;2022-11-14T09:32:42;19.65;;;14.30;;
24223;SDS011;12359;49.716;9.212;2022-11-14T09:35:08;20.88;;;14.27;;
24223;SDS011;12359;49.716;9.212;2022-11-14T09:37:34;17.65;;;12.75;;
24223;SDS011;12359;49.716;9.212;2022-11-14T09:39:59;18.92;;;13.13;;
24223;SDS011;12359;49.716;9.212;2022-11-14T09:44:57;15.48;;;11.90;;
24223;SDS011;12359;49.716;9.212;2022-11-14T09:47:31;13.63;;;10.90;;
24223;SDS011;12359;49.716;9.212;2022-11-14T09:50:16;17.30;;;11.98;;
24223;SDS011;12359;49.716;9.212;2022-11-14T09:52:51;14.82;;;11.75;;
24223;SDS011;12359;49.716;9.212;2022-11-14T09:55:29;14.88;;;11.13;;
24223;SDS011;12359;49.716;9.212;2022-11-14T09:57:57;14.80;;;11.27;;
24223;SDS011;12359;49.716;9.212;2022-11-14T10:00:26;14.70;;;11.32;;
24223;SDS011;12359;49.716;9.212;2022-11-14T10:03:06;13.75;;;10.75;;
24223;SDS011;12359;49.716;9.212;2022-11-14T10:19:48;16.75;;;12.30;;
24223;SDS011;12359;49.716;9.212;2022-11-14T10:37:26;14.63;;;10.75;;
24223;SDS011;12359;49.716;9.212;2022-11-14T10:40:08;14.75;;;10.82;;
24223;SDS011;12359;49.716;9.212;2022-11-14T10:42:42;14.68;;;11.20;;
24223;SDS011;12359;49.716;9.212;2022-11-14T10:45:24;14.75;;;11.05;;
24223;SDS011;12359;49.716;9.212;2022-11-14T10:48:03;16.95;;;12.48;;
24223;SDS011;12359;49.716;9.212;2022-11-14T10:50:44;14.80;;;11.93;;
24223;SDS011;12359;49.716;9.212;2022-11-14T10:53:24;17.88;;;11.30;;
24223;SDS011;12359;49.716;9.212;2022-11-14T10:58:18;16.80;;;11.77;;
24223;SDS011;12359;49.716;9.212;2022-11-14T11:00:45;13.50;;;11.73;;
24223;SDS011;12359;49.716;9.212;2022-11-14T11:03:11;15.05;;;11.05;;
24223;SDS011;12359;49.716;9.212;2022-11-14T11:05:50;14.80;;;11.40;;
24223;SDS011;12359;49.716;9.212;2022-11-14T11:08:21;16.67;;;10.63;;
24223;SDS011;12359;49.716;9.212;2022-11-14T11:11:12;13.30;;;10.53;;
24223;SDS011;12359;49.716;9.212;2022-11-14T11:13:57;18.52;;;11.55;;
24223;SDS011;12359;49.716;9.212;2022-11-14T11:16:25;15.77;;;11.93;;
24223;SDS011;12359;49.716;9.212;2022-11-14T11:18:51;12.05;;;10.45;;
24223;SDS011;12359;49.716;9.212;2022-11-14T11:21:19;12.80;;;10.32;;
24223;SDS011;12359;49.716;9.212;2022-11-14T11:23:53;16.85;;;12.35;;
24223;SDS011;12359;49.716;9.212;2022-11-14T11:34:18;13.65;;;10.82;;
24223;SDS011;12359;49.716;9.212;2022-11-14T11:36:57;14.90;;;11.20;;
24223;SDS011;12359;49.716;9.212;2022-11-14T11:39:33;14.68;;;11.13;;
24223;SDS011;12359;49.716;9.212;2022-11-14T11:42:05;14.23;;;10.27;;
24223;SDS011;12359;49.716;9.212;2022-11-14T11:44:38;14.63;;;10.43;;
24223;SDS011;12359;49.716;9.212;2022-11-14T11:47:10;35.67;;;19.77;;
24223;SDS011;12359;49.716;9.212;2022-11-14T11:54:58;12.70;;;9.77;;
24223;SDS011;12359;49.716;9.212;2022-11-14T11:57:45;14.23;;;9.73;;
24223;SDS011;12359;49.716;9.212;2022-11-14T12:00:15;16.70;;;11.20;;
24223;SDS011;12359;49.716;9.212;2022-11-14T12:02:50;15.98;;;10.98;;
24223;SDS011;12359;49.716;9.212;2022-11-14T12:08:02;13.32;;;11.05;;
24223;SDS011;12359;49.716;9.212;2022-11-14T12:10:34;11.32;;;9.20;;
24223;SDS011;12359;49.716;9.212;2022-11-14T12:18:41;12.25;;;9.65;;
24223;SDS011;12359;49.716;9.212;2022-11-14T12:32:54;10.52;;;8.88;;
24223;SDS011;12359;49.716;9.212;2022-11-14T12:35:32;11.43;;;9.07;;
24223;SDS011;12359;49.716;9.212;2022-11-14T12:38:03;12.38;;;8.98;;
24223;SDS011;12359;49.716;9.212;2022-11-14T12:40:38;16.77;;;9.60;;
24223;SDS011;12359;49.716;9.212;2022-11-14T12:43:23;12.63;;;8.82;;
24223;SDS011;12359;49.716;9.212;2022-11-14T12:46:00;9.27;;;7.63;;
24223;SDS011;12359;49.716;9.212;2022-11-14T12:48:28;10.77;;;8.60;;
24223;SDS011;12359;49.716;9.212;2022-11-14T12:50:56;10.35;;;8.23;;
24223;SDS011;12359;49.716;9.212;2022-11-14T13:12:24;10.25;;;7.85;;
24223;SDS011;12359;49.716;9.212;2022-11-14T13:21:01;13.15;;;8.32;;
24223;SDS011;12359;49.716;9.212;2022-11-14T13:28:46;10.48;;;7.25;;
24223;SDS011;12359;49.716;9.212;2022-11-14T13:33:40;11.40;;;8.35;;
24223;SDS011;12359;49.716;9.212;2022-11-14T13:36:07;8.05;;;6.97;;
24223;SDS011;12359;49.716;9.212;2022-11-14T13:49:31;9.55;;;7.47;;
24223;SDS011;12359;49.716;9.212;2022-11-14T13:52:17;8.25;;;6.82;;
24223;SDS011;12359;49.716;9.212;2022-11-14T13:54:47;12.00;;;8.32;;
24223;SDS011;12359;49.716;9.212;2022-11-14T14:00:29;14.90;;;8.75;;
24223;SDS011;12359;49.716;9.212;2022-11-14T14:03:30;12.63;;;8.50;;
24223;SDS011;12359;49.716;9.212;2022-11-14T14:14:35;10.10;;;8.50;;
24223;SDS011;12359;49.716;9.212;2022-11-14T14:20:03;10.80;;;8.77;;
24223;SDS011;12359;49.716;9.212;2022-11-14T14:25:27;13.85;;;8.88;;
24223;SDS011;12359;49.716;9.212;2022-11-14T14:30:59;11.77;;;8.52;;
24223;SDS011;12359;49.716;9.212;2022-11-14T14:33:38;12.10;;;8.80;;
24223;SDS011;12359;49.716;9.212;2022-11-14T14:36:15;9.48;;;7.50;;
24223;SDS011;12359;49.716;9.212;2022-11-14T14:38:41;12.50;;;8.90;;
24223;SDS011;12359;49.716;9.212;2022-11-14T14:41:08;9.30;;;8.30;;
24223;SDS011;12359;49.716;9.212;2022-11-14T14:43:35;11.75;;;9.02;;
24223;SDS011;12359;49.716;9.212;2022-11-14T14:46:01;12.80;;;9.23;;
24223;SDS011;12359;49.716;9.212;2022-11-14T14:48:31;15.18;;;10.23;;
24223;SDS011;12359;49.716;9.212;2022-11-14T14:51:02;11.02;;;9.05;;
24223;SDS011;12359;49.716;9.212;2022-11-14T14:53:32;13.35;;;9.35;;
24223;SDS011;12359;49.716;9.212;2022-11-14T14:56:05;11.93;;;9.85;;
24223;SDS011;12359;49.716;9.212;2022-11-14T14:58:41;13.35;;;10.10;;
24223;SDS011;12359;49.716;9.212;2022-11-14T15:01:17;14.75;;;10.25;;
24223;SDS011;12359;49.716;9.212;2022-11-14T15:03:48;13.70;;;10.20;;
24223;SDS011;12359;49.716;9.212;2022-11-14T15:06:27;17.02;;;10.80;;
24223;SDS011;12359;49.716;9.212;2022-11-14T15:09:08;14.25;;;10.00;;
24223;SDS011;12359;49.716;9.212;2022-11-14T15:11:46;14.02;;;10.25;;
24223;SDS011;12359;49.716;9.212;2022-11-14T15:14:38;15.35;;;10.88;;
24223;SDS011;12359;49.716;9.212;2022-11-14T15:17:03;12.98;;;9.27;;
24223;SDS011;12359;49.716;9.212;2022-11-14T15:19:39;11.98;;;8.85;;
24223;SDS011;12359;49.716;9.212;2022-11-14T15:24:39;14.38;;;10.35;;
24223;SDS011;12359;49.716;9.212;2022-11-14T15:27:10;13.00;;;9.63;;
24223;SDS011;12359;49.716;9.212;2022-11-14T15:29:44;12.73;;;10.15;;
24223;SDS011;12359;49.716;9.212;2022-11-14T15:32:14;12.98;;;9.77;;
24223;SDS011;12359;49.716;9.212;2022-11-14T15:34:56;12.70;;;10.10;;
24223;SDS011;12359;49.716;9.212;2022-11-14T15:40:32;14.23;;;9.30;;
24223;SDS011;12359;49.716;9.212;2022-11-14T15:42:59;12.30;;;9.20;;
24223;SDS011;12359;49.716;9.212;2022-11-14T15:45:37;12.60;;;9.27;;
24223;SDS011;12359;49.716;9.212;2022-11-14T15:48:10;13.80;;;9.98;;
24223;SDS011;12359;49.716;9.212;2022-11-14T15:50:42;11.10;;;8.27;;
24223;SDS011;12359;49.716;9.212;2022-11-14T15:53:16;14.90;;;9.55;;
24223;SDS011;12359;49.716;9.212;2022-11-14T15:55:45;12.90;;;9.45;;
24223;SDS011;12359;49.716;9.212;2022-11-14T15:58:10;14.57;;;9.15;;
24223;SDS011;12359;49.716;9.212;2022-11-14T16:00:46;10.75;;;7.38;;
24223;SDS011;12359;49.716;9.212;2022-11-14T16:03:16;10.25;;;8.27;;
24223;SDS011;12359;49.716;9.212;2022-11-14T16:05:43;11.57;;;9.60;;
24223;SDS011;12359;49.716;9.212;2022-11-14T16:08:10;9.07;;;8.18;;
24223;SDS011;12359;49.716;9.212;2022-11-14T16:10:36;11.73;;;8.52;;
24223;SDS011;12359;49.716;9.212;2022-11-14T16:13:01;10.43;;;8.60;;
24223;SDS011;12359;49.716;9.212;2022-11-14T16:15:27;14.82;;;8.80;;
24223;SDS011;12359;49.716;9.212;2022-11-14T16:17:53;14.20;;;9.48;;
24223;SDS011;12359;49.716;9.212;2022-11-14T16:20:20;12.70;;;8.75;;
24223;SDS011;12359;49.716;9.212;2022-11-14T16:22:51;13.13;;;8.95;;
24223;SDS011;12359;49.716;9.212;2022-11-14T16:25:26;11.02;;;8.48;;
24223;SDS011;12359;49.716;9.212;2022-11-14T16:27:54;9.13;;;7.75;;
24223;SDS011;12359;49.716;9.212;2022-11-14T16:30:20;10.48;;;8.43;;
24223;SDS011;12359;49.716;9.212;2022-11-14T16:32:48;11.45;;;8.15;;
24223;SDS011;12359;49.716;9.212;2022-11-14T16:35:19;15.38;;;8.20;;
24223;SDS011;12359;49.716;9.212;2022-11-14T16:37:51;13.95;;;9.23;;
24223;SDS011;12359;49.716;9.212;2022-11-14T16:40:19;9.43;;;8.50;;
24223;SDS011;12359;49.716;9.212;2022-11-14T16:42:47;13.90;;;8.93;;
24223;SDS011;12359;49.716;9.212;2022-11-14T16:45:16;9.68;;;8.55;;
24223;SDS011;12359;49.716;9.212;2022-11-14T16:47:44;15.85;;;9.50;;
24223;SDS011;12359;49.716;9.212;2022-11-14T16:50:10;12.48;;;8.35;;
24223;SDS011;12359;49.716;9.212;2022-11-14T16:52:36;11.40;;;8.20;;
24223;SDS011;12359;49.716;9.212;2022-11-14T16:55:03;12.23;;;7.85;;
24223;SDS011;12359;49.716;9.212;2022-11-14T16:57:30;9.10;;;7.60;;
24223;SDS011;12359;49.716;9.212;2022-11-14T16:59:56;9.63;;;7.70;;